createdAt,value
2018-02-14T00:00:57.291Z,1.77
2018-02-14T00:03:59.183Z,2.10
2018-02-14T00:07:01.087Z,1.53
2018-02-14T00:10:02.983Z,1.63
2018-02-14T00:13:04.880Z,1.80
2018-02-14T00:16:06.762Z,1.50
2018-02-14T00:19:08.658Z,1.70
2018-02-14T00:22:10.562Z,1.50
2018-02-14T00:25:12.459Z,1.90
2018-02-14T00:28:14.355Z,1.90
2018-02-14T00:31:16.238Z,1.90
2018-02-14T00:34:18.142Z,1.87
2018-02-14T00:37:20.044Z,1.80
2018-02-14T00:40:21.936Z,1.90
2018-02-14T00:43:23.951Z,1.67
2018-02-14T00:46:25.831Z,1.90
2018-02-14T00:49:27.723Z,1.67
2018-02-14T00:52:29.618Z,1.63
2018-02-14T00:55:31.511Z,1.67
2018-02-14T00:58:33.436Z,1.90
2018-02-14T01:01:35.312Z,1.80
2018-02-14T01:04:37.203Z,1.50
2018-02-14T01:07:39.090Z,1.83
2018-02-14T01:10:40.999Z,1.67
2018-02-14T01:13:42.890Z,1.67
2018-02-14T01:16:44.782Z,1.80
2018-02-14T01:19:50.851Z,1.80
2018-02-14T01:22:52.799Z,1.80
2018-02-14T01:25:54.775Z,2.00
2018-02-14T01:28:56.691Z,1.70
2018-02-14T01:31:58.664Z,1.70
2018-02-14T01:35:00.563Z,1.77
2018-02-14T01:38:02.454Z,1.90
2018-02-14T01:41:04.665Z,1.60
2018-02-14T01:44:06.559Z,1.87
2018-02-14T01:47:08.450Z,1.90
2018-02-14T01:50:10.347Z,1.80
2018-02-14T01:53:12.250Z,1.50
2018-02-14T01:56:14.139Z,1.77
2018-02-14T01:59:16.032Z,1.63
2018-02-14T02:02:17.931Z,1.87
2018-02-14T02:05:19.823Z,1.67
2018-02-14T02:08:21.729Z,1.87
2018-02-14T02:11:23.614Z,2.00
2018-02-14T02:14:25.535Z,1.60
2018-02-14T02:17:27.516Z,1.60
2018-02-14T02:20:29.398Z,2.00
2018-02-14T02:23:31.299Z,1.90
2018-02-14T02:26:33.202Z,1.70
2018-02-14T02:29:35.398Z,1.90
2018-02-14T02:32:37.299Z,1.90
2018-02-14T02:35:39.196Z,1.73
2018-02-14T02:38:41.088Z,1.73
2018-02-14T02:41:43.010Z,1.80
2018-02-14T02:44:44.984Z,1.80
2018-02-14T02:47:46.882Z,1.80
2018-02-14T02:50:48.776Z,1.70
2018-02-14T02:53:50.667Z,2.00
2018-02-14T02:56:52.807Z,2.07
2018-02-14T02:59:54.771Z,1.90
2018-02-14T03:02:56.663Z,1.40
2018-02-14T03:05:58.555Z,1.70
2018-02-14T03:09:00.459Z,1.73
2018-02-14T03:12:02.346Z,1.70
2018-02-14T03:15:04.239Z,1.97
2018-02-14T03:18:06.145Z,1.63
2018-02-14T03:21:08.039Z,1.57
2018-02-14T03:24:09.938Z,1.70
2018-02-14T03:27:11.826Z,1.57
2018-02-14T03:30:13.723Z,1.80
2018-02-14T03:33:15.631Z,1.90
2018-02-14T03:36:17.537Z,1.83
2018-02-14T03:39:19.506Z,1.63
2018-02-14T03:42:21.407Z,1.70
2018-02-14T03:45:23.296Z,1.60
2018-02-14T03:48:25.199Z,1.90
2018-02-14T03:51:27.129Z,2.00
2018-02-14T03:54:29.095Z,1.73
2018-02-14T03:57:30.986Z,1.57
2018-02-14T04:00:32.878Z,1.60
2018-02-14T04:03:34.779Z,1.63
2018-02-14T04:06:36.900Z,1.73
2018-02-14T04:09:38.779Z,1.60
2018-02-14T04:12:40.674Z,1.57
2018-02-14T04:15:42.572Z,1.63
2018-02-14T04:18:44.470Z,1.70
2018-02-14T04:21:46.363Z,1.70
2018-02-14T04:24:48.255Z,1.80
2018-02-14T04:27:50.291Z,2.00
2018-02-14T04:30:52.255Z,1.90
2018-02-14T04:33:54.143Z,1.73
2018-02-14T04:36:56.043Z,1.60
2018-02-14T04:39:57.937Z,2.10
2018-02-14T04:42:59.863Z,2.00
2018-02-14T04:46:01.827Z,1.97
2018-02-14T04:49:03.750Z,1.90
2018-02-14T04:52:05.629Z,1.90
2018-02-14T04:55:07.559Z,1.90
2018-02-14T04:58:09.522Z,1.70
2018-02-14T05:01:11.420Z,1.90
2018-02-14T05:04:13.319Z,1.67
2018-02-14T05:07:15.202Z,1.53
2018-02-14T05:10:17.100Z,1.80
2018-02-14T05:13:18.991Z,1.80
2018-02-14T05:16:20.884Z,1.70
2018-02-14T05:19:22.792Z,1.60
2018-02-14T05:22:24.682Z,1.90
2018-02-14T05:25:26.582Z,1.67
2018-02-14T05:28:28.471Z,1.60
2018-02-14T05:31:30.367Z,1.57
2018-02-14T05:34:32.262Z,1.63
2018-02-14T05:37:34.155Z,1.60
2018-02-14T05:40:36.055Z,1.60
2018-02-14T05:43:37.975Z,1.70
2018-02-14T05:46:39.964Z,1.53
2018-02-14T05:49:41.963Z,1.73
2018-02-14T05:52:43.935Z,1.90
2018-02-14T05:55:46.139Z,1.90
2018-02-14T05:58:48.039Z,1.80
2018-02-14T06:01:49.939Z,1.63
2018-02-14T06:04:51.831Z,1.70
2018-02-14T06:07:53.719Z,1.70
2018-02-14T06:10:55.623Z,1.83
2018-02-14T06:13:57.539Z,1.80
2018-02-14T06:16:59.518Z,1.60
2018-02-14T06:20:01.416Z,1.77
2018-02-14T06:23:03.308Z,1.70
2018-02-14T06:26:05.199Z,1.50
2018-02-14T06:29:07.096Z,1.67
2018-02-14T06:32:08.959Z,1.50
2018-02-14T06:35:10.831Z,1.67
2018-02-14T06:38:12.711Z,1.43
2018-02-14T06:41:14.583Z,1.80
2018-02-14T06:44:16.446Z,1.63
2018-02-14T06:47:18.314Z,1.70
2018-02-14T06:50:20.182Z,1.47
2018-02-14T06:53:22.059Z,1.40
2018-02-14T06:56:23.990Z,1.60
2018-02-14T06:59:25.867Z,1.53
2018-02-14T07:02:27.750Z,1.60
2018-02-14T07:05:29.619Z,1.80
2018-02-14T07:08:31.499Z,1.60
2018-02-14T07:11:33.399Z,1.50
2018-02-14T07:14:35.270Z,1.27
2018-02-14T07:17:37.148Z,1.30
2018-02-14T07:20:39.019Z,1.67
2018-02-14T07:23:40.983Z,1.60
2018-02-14T07:26:42.852Z,1.50
2018-02-14T07:29:44.727Z,1.40
2018-02-14T07:32:46.601Z,1.53
2018-02-14T07:35:48.474Z,1.37
2018-02-14T07:38:50.351Z,1.67
2018-02-14T07:41:52.835Z,1.50
2018-02-14T07:44:54.714Z,1.63
2018-02-14T07:47:56.579Z,1.63
2018-02-14T07:50:58.455Z,1.63
2018-02-14T07:53:59.999Z,1.60
2018-02-14T07:57:01.871Z,1.27
2018-02-14T08:00:03.979Z,1.53
2018-02-14T08:03:05.846Z,1.47
2018-02-14T08:06:07.714Z,1.70
2018-02-14T08:09:09.588Z,1.57
2018-02-14T08:12:11.455Z,1.50
2018-02-14T08:15:13.351Z,1.50
2018-02-14T08:18:15.220Z,1.60
2018-02-14T08:21:17.099Z,1.40
2018-02-14T08:24:18.979Z,1.47
2018-02-14T08:27:20.841Z,1.40
2018-02-14T08:30:22.716Z,1.80
2018-02-14T08:33:24.584Z,1.67
2018-02-14T08:36:26.451Z,1.60
2018-02-14T08:39:28.362Z,1.50
2018-02-14T08:42:30.210Z,1.30
2018-02-14T08:45:32.079Z,1.63
2018-02-14T08:48:33.951Z,1.60
2018-02-14T08:51:35.831Z,1.33
2018-02-14T08:54:37.704Z,1.47
2018-02-14T08:57:39.579Z,1.40
2018-02-14T09:00:41.449Z,1.47
2018-02-14T09:03:43.627Z,1.47
2018-02-14T09:06:45.514Z,1.70
2018-02-14T09:09:47.378Z,1.50
2018-02-14T09:12:49.259Z,1.67
2018-02-14T09:15:51.136Z,1.77
2018-02-14T09:18:53.014Z,1.70
2018-02-14T09:21:54.889Z,1.53
2018-02-14T09:24:56.762Z,1.40
2018-02-14T09:27:58.655Z,1.70
2018-02-14T09:31:00.535Z,1.60
2018-02-14T09:34:02.411Z,1.33
2018-02-14T09:37:04.295Z,1.63
2018-02-14T09:40:06.158Z,1.60
2018-02-14T09:43:08.034Z,1.30
2018-02-14T09:46:09.911Z,1.50
2018-02-14T09:49:11.986Z,1.50
2018-02-14T09:52:13.869Z,1.70
2018-02-14T09:55:15.747Z,1.50
2018-02-14T09:58:17.620Z,1.50
2018-02-14T10:01:19.540Z,1.40
2018-02-14T10:04:21.375Z,1.60
2018-02-14T10:07:23.247Z,1.57
2018-02-14T10:10:25.143Z,1.70
2018-02-14T10:13:27.019Z,1.67
2018-02-14T10:16:28.890Z,1.50
2018-02-14T10:19:30.779Z,1.40
2018-02-14T10:22:32.660Z,1.70
2018-02-14T10:25:34.543Z,1.70
2018-02-14T10:28:36.415Z,1.70
2018-02-14T10:31:38.319Z,1.80
2018-02-14T10:34:40.483Z,1.83
2018-02-14T10:37:42.353Z,1.80
2018-02-14T10:40:44.320Z,1.67
2018-02-14T10:43:46.215Z,1.50
2018-02-14T10:46:48.115Z,1.73
2018-02-14T10:49:50.007Z,1.70
2018-02-14T10:52:51.875Z,1.60
2018-02-14T10:55:53.798Z,1.70
2018-02-14T10:58:55.707Z,1.60
2018-02-14T11:02:01.896Z,1.70
2018-02-14T11:05:07.959Z,1.67
2018-02-14T11:08:09.875Z,1.80
2018-02-14T11:11:11.771Z,1.50
2018-02-14T11:14:13.667Z,1.60
2018-02-14T11:17:15.566Z,1.67
2018-02-14T11:20:17.462Z,1.50
2018-02-14T11:23:19.355Z,1.43
2018-02-14T11:26:21.255Z,1.63
2018-02-14T11:29:23.160Z,1.40
2018-02-14T11:32:25.035Z,1.53
2018-02-14T11:35:26.952Z,1.70
2018-02-14T11:38:28.908Z,1.30
2018-02-14T11:41:30.875Z,1.40
2018-02-14T11:44:32.786Z,1.80
2018-02-14T11:47:34.847Z,1.70
2018-02-14T11:50:36.775Z,1.50
2018-02-14T11:53:38.735Z,1.43
2018-02-14T11:56:40.611Z,1.50
2018-02-14T11:59:42.563Z,1.80
2018-02-14T12:02:44.544Z,1.40
2018-02-14T12:05:46.511Z,1.60
2018-02-14T12:08:48.482Z,1.60
2018-02-14T12:11:50.350Z,1.47
2018-02-14T12:14:52.231Z,1.40
2018-02-14T12:17:54.142Z,1.47
2018-02-14T12:20:56.076Z,1.50
2018-02-14T12:27:21.618Z,1.40
2018-02-14T12:30:23.527Z,1.60
2018-02-14T12:33:25.498Z,1.53
2018-02-14T12:36:27.483Z,1.30
2018-02-14T12:39:29.440Z,1.30
2018-02-14T12:42:31.371Z,1.23
2018-02-14T12:45:33.255Z,1.20
2018-02-14T12:48:35.177Z,1.43
2018-02-14T12:51:37.138Z,1.37
2018-02-14T12:54:39.111Z,1.30
2018-02-14T12:57:42.035Z,1.43
2018-02-14T13:00:44.027Z,1.60
2018-02-14T13:03:45.923Z,1.53
2018-02-14T13:06:47.823Z,1.67
2018-02-14T13:09:51.089Z,1.50
2018-02-14T13:12:53.052Z,1.50
2018-02-14T13:15:54.943Z,1.40
2018-02-14T13:18:56.843Z,1.40
2018-02-14T13:21:58.839Z,1.30
2018-02-14T13:25:00.744Z,1.10
2018-02-14T13:28:02.732Z,1.40
2018-02-14T13:31:04.622Z,1.63
2018-02-14T13:34:06.527Z,1.20
2018-02-14T13:37:08.543Z,1.10
2018-02-14T13:40:10.526Z,1.60
2018-02-14T13:43:13.447Z,1.37
2018-02-14T13:46:15.443Z,1.17
2018-02-14T13:49:17.455Z,1.40
2018-02-14T13:52:19.434Z,1.47
2018-02-14T13:55:21.436Z,1.10
2018-02-14T13:58:23.323Z,1.07
2018-02-14T14:01:25.327Z,1.60
2018-02-14T14:04:27.225Z,1.50
2018-02-14T14:07:29.475Z,1.57
2018-02-14T14:10:31.426Z,1.27
2018-02-14T14:13:33.471Z,1.37
2018-02-14T14:16:35.597Z,1.40
2018-02-14T14:19:37.623Z,1.77
2018-02-14T14:22:39.539Z,1.40
2018-02-14T14:25:41.422Z,1.30
2018-02-14T14:28:43.531Z,1.67
2018-02-14T14:31:45.523Z,1.37
2018-02-14T14:34:47.475Z,1.70
2018-02-14T14:37:49.420Z,1.90
2018-02-14T14:40:51.434Z,1.90
2018-02-14T14:43:53.456Z,1.73
2018-02-14T14:46:56.474Z,1.93
2018-02-14T14:49:58.534Z,1.70
2018-02-14T14:53:00.471Z,1.60
2018-02-14T14:56:02.431Z,1.50
2018-02-14T14:59:04.497Z,1.70
2018-02-14T15:02:06.428Z,2.03
2018-02-14T15:05:09.462Z,1.60
2018-02-14T15:08:11.566Z,1.27
2018-02-14T15:11:13.655Z,1.70
2018-02-14T15:14:15.563Z,1.40
2018-02-14T15:17:17.554Z,1.70
2018-02-14T15:20:19.631Z,1.20
2018-02-14T15:23:21.631Z,1.27
2018-02-14T15:26:23.791Z,1.37
2018-02-14T15:29:25.847Z,1.57
2018-02-14T15:32:27.844Z,1.37
2018-02-14T15:35:29.840Z,1.33
2018-02-14T15:38:32.871Z,1.20
2018-02-14T15:41:34.759Z,1.43
2018-02-14T15:44:36.763Z,1.30
2018-02-14T15:47:38.659Z,1.80
2018-02-14T15:50:41.571Z,1.43
2018-02-14T15:53:43.636Z,1.50
2018-02-14T15:56:45.566Z,1.60
2018-02-14T15:59:47.475Z,1.27
2018-02-14T16:02:50.413Z,1.20
2018-02-14T16:05:52.383Z,1.33
2018-02-14T16:08:54.655Z,1.27
2018-02-14T16:11:56.639Z,1.63
2018-02-14T16:14:58.578Z,1.40
2018-02-14T16:18:01.604Z,1.40
2018-02-14T16:21:03.719Z,1.30
2018-02-14T16:24:05.699Z,1.30
2018-02-14T16:27:07.791Z,1.30
2018-02-14T16:30:09.703Z,1.13
2018-02-14T16:33:11.607Z,1.37
2018-02-14T16:36:15.723Z,1.73
2018-02-14T16:39:17.727Z,1.30
2018-02-14T16:42:19.637Z,1.60
2018-02-14T16:45:21.640Z,1.40
2018-02-14T16:48:23.739Z,1.27
2018-02-14T16:51:26.652Z,1.23
2018-02-14T16:54:28.631Z,1.33
2018-02-14T16:57:30.548Z,1.20
2018-02-14T17:00:32.443Z,1.40
2018-02-14T17:03:35.378Z,1.30
2018-02-14T17:06:38.148Z,1.47
2018-02-14T17:09:40.079Z,1.80
2018-02-14T17:12:41.971Z,1.60
2018-02-14T17:15:43.854Z,1.70
2018-02-14T17:18:45.780Z,1.70
2018-02-14T17:21:47.661Z,1.60
2018-02-14T17:24:49.582Z,1.70
2018-02-14T17:27:51.479Z,1.70
2018-02-14T17:30:53.451Z,1.70
2018-02-14T17:33:55.354Z,1.80
2018-02-14T17:36:57.239Z,1.60
2018-02-14T17:39:59.118Z,2.03
2018-02-14T17:43:01.067Z,2.03
2018-02-14T17:46:02.978Z,1.90
2018-02-14T17:49:04.867Z,2.43
2018-02-14T17:52:06.834Z,2.10
2018-02-14T17:55:08.793Z,2.40
2018-02-14T17:58:10.656Z,2.10
2018-02-14T18:01:12.858Z,2.40
2018-02-14T18:04:14.767Z,2.20
2018-02-14T18:07:16.680Z,2.20
2018-02-14T18:10:19.682Z,2.37
2018-02-14T18:13:21.603Z,2.00
2018-02-14T18:16:23.535Z,1.93
2018-02-14T18:19:25.431Z,2.62
2018-02-14T18:22:27.329Z,2.30
2018-02-14T18:25:29.218Z,2.50
2018-02-14T18:28:32.118Z,2.60
2018-02-14T18:31:35.000Z,2.47
2018-02-14T18:34:36.898Z,2.77
2018-02-14T18:37:38.795Z,2.30
2018-02-14T18:40:40.679Z,2.50
2018-02-14T18:43:42.567Z,2.30
2018-02-14T18:46:44.447Z,2.40
2018-02-14T18:49:47.399Z,2.57
2018-02-14T18:52:50.304Z,2.60
2018-02-14T18:55:52.188Z,2.90
2018-02-14T18:58:55.208Z,2.70
2018-02-14T19:01:57.067Z,2.60
2018-02-14T19:04:58.979Z,2.50
2018-02-14T19:08:00.866Z,2.27
2018-02-14T19:11:02.766Z,2.37
2018-02-14T19:14:04.966Z,2.43
2018-02-14T19:17:06.928Z,2.60
2018-02-14T19:20:08.827Z,2.53
2018-02-14T19:23:11.768Z,2.60
2018-02-14T19:26:14.687Z,2.50
2018-02-14T19:29:17.608Z,2.67
2018-02-14T19:32:19.515Z,2.47
2018-02-14T19:35:21.406Z,2.55
2018-02-14T19:38:24.343Z,2.47
2018-02-14T19:41:26.235Z,2.83
2018-02-14T19:44:28.119Z,2.23
2018-02-14T19:47:30.008Z,2.50
2018-02-14T19:50:31.911Z,2.73
2018-02-14T19:53:33.860Z,2.90
2018-02-14T19:56:35.735Z,2.27
2018-02-14T19:59:37.628Z,2.40
2018-02-14T20:02:39.511Z,3.30
2018-02-14T20:05:41.407Z,3.13
2018-02-14T20:08:43.300Z,3.13
2018-02-14T20:11:45.191Z,2.73
2018-02-14T20:14:47.091Z,3.47
2018-02-14T20:17:48.991Z,2.90
2018-02-14T20:20:50.905Z,2.80
2018-02-14T20:23:52.886Z,2.70
2018-02-14T20:26:54.886Z,3.07
2018-02-14T20:29:56.740Z,2.87
2018-02-14T20:32:58.631Z,2.63
2018-02-14T20:36:00.518Z,2.87
2018-02-14T20:39:02.508Z,2.70
2018-02-14T20:42:05.182Z,3.30
2018-02-14T20:45:07.159Z,2.80
2018-02-14T20:48:09.051Z,3.40
2018-02-14T20:51:10.956Z,2.77
2018-02-14T20:54:12.851Z,3.20
2018-02-14T20:57:14.862Z,2.90
2018-02-14T21:00:16.872Z,2.97
2018-02-14T21:03:18.862Z,3.50
2018-02-14T21:06:20.779Z,3.13
2018-02-14T21:09:22.772Z,2.97
2018-02-14T21:12:24.763Z,3.10
2018-02-14T21:15:26.651Z,2.70
2018-02-14T21:18:28.550Z,3.00
2018-02-14T21:21:30.444Z,3.23
2018-02-14T21:24:32.351Z,2.77
2018-02-14T21:27:34.267Z,2.73
2018-02-14T21:30:36.179Z,2.80
2018-02-14T21:33:38.068Z,3.00
2018-02-14T21:36:40.983Z,2.97
2018-02-14T21:39:42.982Z,2.90
2018-02-14T21:42:44.896Z,3.20
2018-02-14T21:45:46.792Z,3.10
2018-02-14T21:48:48.711Z,2.80
2018-02-14T21:51:50.595Z,2.90
2018-02-14T21:54:52.504Z,2.90
2018-02-14T21:57:54.410Z,2.77
2018-02-14T22:00:56.295Z,3.27
2018-02-14T22:03:58.288Z,3.10
2018-02-14T22:07:00.182Z,3.20
2018-02-14T22:10:02.427Z,3.27
2018-02-14T22:13:04.375Z,2.97
2018-02-14T22:16:06.480Z,3.10
2018-02-14T22:19:08.470Z,3.00
2018-02-14T22:22:10.423Z,3.10
2018-02-14T22:25:12.552Z,2.93
2018-02-14T22:28:14.519Z,3.07
2018-02-14T22:31:16.465Z,2.97
2018-02-14T22:34:18.375Z,3.33
2018-02-14T22:37:20.346Z,3.20
2018-02-14T22:40:22.255Z,2.77
2018-02-14T22:43:24.148Z,3.00
2018-02-14T22:46:26.051Z,2.93
2018-02-14T22:49:28.041Z,3.13
2018-02-14T22:52:30.043Z,3.20
2018-02-14T22:55:32.055Z,3.20
2018-02-14T22:58:34.081Z,3.20
2018-02-14T23:01:36.032Z,3.70
2018-02-14T23:04:38.060Z,2.80
2018-02-14T23:07:40.018Z,2.90
2018-02-14T23:10:42.948Z,3.20
2018-02-14T23:13:44.943Z,3.10
2018-02-14T23:16:46.840Z,3.23
2018-02-14T23:19:48.736Z,3.23
2018-02-14T23:22:51.655Z,2.87
2018-02-14T23:25:53.650Z,3.27
2018-02-14T23:28:55.656Z,2.97
2018-02-14T23:31:57.552Z,3.00
2018-02-14T23:34:59.542Z,3.00
2018-02-14T23:38:01.534Z,3.00
2018-02-14T23:41:03.432Z,3.20
2018-02-14T23:44:05.322Z,3.00
2018-02-14T23:47:07.227Z,3.03
2018-02-14T23:50:09.218Z,3.30
2018-02-14T23:53:11.220Z,3.33
2018-02-14T23:56:14.163Z,3.60
2018-02-14T23:59:16.139Z,3.47
